sensor_id;sensor_type;location;lat;lon;timestamp;temperature;humidity
15930;DHT22;8064;51.142;4.780;2024-01-30T00:00:24;9.30;99.90
15930;DHT22;8064;51.142;4.780;2024-01-30T00:02:50;9.30;99.90
15930;DHT22;8064;51.142;4.780;2024-01-30T00:05:16;9.30;99.90
15930;DHT22;8064;51.142;4.780;2024-01-30T00:07:43;9.30;99.90
15930;DHT22;8064;51.142;4.780;2024-01-30T00:10:09;9.30;99.90
15930;DHT22;8064;51.142;4.780;2024-01-30T00:12:34;9.30;99.90
15930;DHT22;8064;51.142;4.780;2024-01-30T00:15:00;9.30;99.90
15930;DHT22;8064;51.142;4.780;2024-01-30T00:17:26;9.30;99.90
15930;DHT22;8064;51.142;4.780;2024-01-30T00:19:52;9.30;99.90
15930;DHT22;8064;51.142;4.780;2024-01-30T00:22:17;9.30;99.90
15930;DHT22;8064;51.142;4.780;2024-01-30T00:24:43;9.30;99.90
15930;DHT22;8064;51.142;4.780;2024-01-30T00:27:09;9.30;99.90
15930;DHT22;8064;51.142;4.780;2024-01-30T00:29:34;9.30;99.90
15930;DHT22;8064;51.142;4.780;2024-01-30T00:32:00;9.30;99.90
15930;DHT22;8064;51.142;4.780;2024-01-30T00:34:26;9.30;99.90
15930;DHT22;8064;51.142;4.780;2024-01-30T00:36:52;9.30;99.90
15930;DHT22;8064;51.142;4.780;2024-01-30T00:39:17;9.30;99.90
15930;DHT22;8064;51.142;4.780;2024-01-30T00:41:45;9.20;99.90
15930;DHT22;8064;51.142;4.780;2024-01-30T00:44:11;9.20;99.90
15930;DHT22;8064;51.142;4.780;2024-01-30T00:46:36;9.20;99.90
15930;DHT22;8064;51.142;4.780;2024-01-30T00:49:02;9.20;99.90
15930;DHT22;8064;51.142;4.780;2024-01-30T00:51:28;9.20;99.90
15930;DHT22;8064;51.142;4.780;2024-01-30T00:53:55;9.20;99.90
15930;DHT22;8064;51.142;4.780;2024-01-30T00:56:21;9.20;99.90
15930;DHT22;8064;51.142;4.780;2024-01-30T00:58:47;9.20;99.90
15930;DHT22;8064;51.142;4.780;2024-01-30T01:01:12;9.20;99.90
15930;DHT22;8064;51.142;4.780;2024-01-30T01:03:38;9.20;99.90
15930;DHT22;8064;51.142;4.780;2024-01-30T01:06:06;9.20;99.90
15930;DHT22;8064;51.142;4.780;2024-01-30T01:08:32;9.20;99.90
15930;DHT22;8064;51.142;4.780;2024-01-30T01:10:57;9.20;99.90
15930;DHT22;8064;51.142;4.780;2024-01-30T01:13:23;9.20;99.90
15930;DHT22;8064;51.142;4.780;2024-01-30T01:15:49;9.20;99.90
15930;DHT22;8064;51.142;4.780;2024-01-30T01:18:15;9.10;99.90
15930;DHT22;8064;51.142;4.780;2024-01-30T01:20:41;9.10;99.90
15930;DHT22;8064;51.142;4.780;2024-01-30T01:23:07;9.10;99.90
15930;DHT22;8064;51.142;4.780;2024-01-30T01:25:32;9.10;99.90
15930;DHT22;8064;51.142;4.780;2024-01-30T01:27:58;9.10;99.90
15930;DHT22;8064;51.142;4.780;2024-01-30T01:30:26;9.10;99.90
15930;DHT22;8064;51.142;4.780;2024-01-30T01:32:53;9.10;99.90
15930;DHT22;8064;51.142;4.780;2024-01-30T01:35:22;9.10;99.90
15930;DHT22;8064;51.142;4.780;2024-01-30T01:37:49;9.10;99.90
15930;DHT22;8064;51.142;4.780;2024-01-30T01:40:27;9.10;99.90
15930;DHT22;8064;51.142;4.780;2024-01-30T01:42:54;9.10;99.90
15930;DHT22;8064;51.142;4.780;2024-01-30T01:45:21;9.10;99.90
15930;DHT22;8064;51.142;4.780;2024-01-30T01:47:50;9.10;99.90
15930;DHT22;8064;51.142;4.780;2024-01-30T01:50:18;9.10;99.90
15930;DHT22;8064;51.142;4.780;2024-01-30T01:52:47;9.10;99.90
15930;DHT22;8064;51.142;4.780;2024-01-30T01:55:14;9.10;99.90
15930;DHT22;8064;51.142;4.780;2024-01-30T01:57:42;9.10;99.90
15930;DHT22;8064;51.142;4.780;2024-01-30T02:00:09;9.20;99.90
15930;DHT22;8064;51.142;4.780;2024-01-30T02:02:36;9.10;99.90
15930;DHT22;8064;51.142;4.780;2024-01-30T02:05:02;9.10;99.90
15930;DHT22;8064;51.142;4.780;2024-01-30T02:07:28;9.10;99.90
15930;DHT22;8064;51.142;4.780;2024-01-30T02:09:55;9.10;99.90
15930;DHT22;8064;51.142;4.780;2024-01-30T02:12:21;9.10;99.90
15930;DHT22;8064;51.142;4.780;2024-01-30T02:14:47;9.10;99.90
15930;DHT22;8064;51.142;4.780;2024-01-30T02:17:13;9.20;99.90
15930;DHT22;8064;51.142;4.780;2024-01-30T02:19:40;9.20;99.90
15930;DHT22;8064;51.142;4.780;2024-01-30T02:22:05;9.20;99.90
15930;DHT22;8064;51.142;4.780;2024-01-30T02:24:32;9.20;99.90
15930;DHT22;8064;51.142;4.780;2024-01-30T02:26:58;9.20;99.90
15930;DHT22;8064;51.142;4.780;2024-01-30T02:29:24;9.20;99.90
15930;DHT22;8064;51.142;4.780;2024-01-30T02:31:49;9.30;99.90
15930;DHT22;8064;51.142;4.780;2024-01-30T02:34:15;9.30;99.90
15930;DHT22;8064;51.142;4.780;2024-01-30T02:36:43;9.40;99.90
15930;DHT22;8064;51.142;4.780;2024-01-30T02:39:09;9.40;99.90
15930;DHT22;8064;51.142;4.780;2024-01-30T02:41:35;9.40;99.90
15930;DHT22;8064;51.142;4.780;2024-01-30T02:44:02;9.50;99.90
15930;DHT22;8064;51.142;4.780;2024-01-30T02:46:28;9.40;99.90
15930;DHT22;8064;51.142;4.780;2024-01-30T02:48:53;9.40;99.90
15930;DHT22;8064;51.142;4.780;2024-01-30T02:51:19;9.40;99.90
15930;DHT22;8064;51.142;4.780;2024-01-30T02:53:45;9.40;99.90
15930;DHT22;8064;51.142;4.780;2024-01-30T02:56:11;9.40;99.90
15930;DHT22;8064;51.142;4.780;2024-01-30T02:58:37;9.40;99.90
15930;DHT22;8064;51.142;4.780;2024-01-30T03:01:03;9.40;99.90
15930;DHT22;8064;51.142;4.780;2024-01-30T03:03:29;9.40;99.90
15930;DHT22;8064;51.142;4.780;2024-01-30T03:05:54;9.40;99.90
15930;DHT22;8064;51.142;4.780;2024-01-30T03:08:20;9.30;99.90
15930;DHT22;8064;51.142;4.780;2024-01-30T03:10:46;9.30;99.90
15930;DHT22;8064;51.142;4.780;2024-01-30T03:13:12;9.30;99.90
15930;DHT22;8064;51.142;4.780;2024-01-30T03:15:38;9.30;99.90
15930;DHT22;8064;51.142;4.780;2024-01-30T03:18:04;9.30;99.90
15930;DHT22;8064;51.142;4.780;2024-01-30T03:20:30;9.30;99.90
15930;DHT22;8064;51.142;4.780;2024-01-30T03:22:56;9.30;99.90
15930;DHT22;8064;51.142;4.780;2024-01-30T03:25:21;9.30;99.90
15930;DHT22;8064;51.142;4.780;2024-01-30T03:27:47;9.30;99.90
15930;DHT22;8064;51.142;4.780;2024-01-30T03:30:13;9.30;99.90
15930;DHT22;8064;51.142;4.780;2024-01-30T03:32:39;9.30;99.90
15930;DHT22;8064;51.142;4.780;2024-01-30T03:35:05;9.30;99.90
15930;DHT22;8064;51.142;4.780;2024-01-30T03:37:31;9.30;99.90
15930;DHT22;8064;51.142;4.780;2024-01-30T03:39:57;9.40;99.90
15930;DHT22;8064;51.142;4.780;2024-01-30T03:42:23;9.40;99.90
15930;DHT22;8064;51.142;4.780;2024-01-30T03:44:48;9.50;99.90
15930;DHT22;8064;51.142;4.780;2024-01-30T03:47:17;9.50;99.90
15930;DHT22;8064;51.142;4.780;2024-01-30T03:49:43;9.50;99.90
15930;DHT22;8064;51.142;4.780;2024-01-30T03:52:08;9.60;99.90
15930;DHT22;8064;51.142;4.780;2024-01-30T03:54:34;9.60;99.90
15930;DHT22;8064;51.142;4.780;2024-01-30T03:57:00;9.70;99.90
15930;DHT22;8064;51.142;4.780;2024-01-30T03:59:26;9.70;99.90
15930;DHT22;8064;51.142;4.780;2024-01-30T04:01:52;9.80;99.90
15930;DHT22;8064;51.142;4.780;2024-01-30T04:04:18;9.80;99.90
15930;DHT22;8064;51.142;4.780;2024-01-30T04:06:45;9.90;99.90
15930;DHT22;8064;51.142;4.780;2024-01-30T04:09:11;9.90;99.90
15930;DHT22;8064;51.142;4.780;2024-01-30T04:11:38;10.00;99.90
15930;DHT22;8064;51.142;4.780;2024-01-30T04:14:04;10.00;99.90
15930;DHT22;8064;51.142;4.780;2024-01-30T04:16:30;10.10;99.90
15930;DHT22;8064;51.142;4.780;2024-01-30T04:18:56;10.10;99.90
15930;DHT22;8064;51.142;4.780;2024-01-30T04:21:22;10.10;99.90
15930;DHT22;8064;51.142;4.780;2024-01-30T04:23:48;10.10;99.90
15930;DHT22;8064;51.142;4.780;2024-01-30T04:26:14;10.10;99.90
15930;DHT22;8064;51.142;4.780;2024-01-30T04:28:46;10.10;99.90
15930;DHT22;8064;51.142;4.780;2024-01-30T04:31:12;10.10;99.90
15930;DHT22;8064;51.142;4.780;2024-01-30T04:33:37;10.10;99.90
15930;DHT22;8064;51.142;4.780;2024-01-30T04:36:04;10.00;99.90
15930;DHT22;8064;51.142;4.780;2024-01-30T04:38:31;10.00;99.90
15930;DHT22;8064;51.142;4.780;2024-01-30T04:40:57;10.00;99.90
15930;DHT22;8064;51.142;4.780;2024-01-30T04:43:22;10.00;99.90
15930;DHT22;8064;51.142;4.780;2024-01-30T04:45:49;10.00;99.90
15930;DHT22;8064;51.142;4.780;2024-01-30T04:48:15;10.00;99.90
15930;DHT22;8064;51.142;4.780;2024-01-30T04:50:40;10.00;99.90
15930;DHT22;8064;51.142;4.780;2024-01-30T04:53:06;10.00;99.90
15930;DHT22;8064;51.142;4.780;2024-01-30T04:55:34;10.00;99.90
15930;DHT22;8064;51.142;4.780;2024-01-30T04:58:01;10.00;99.90
15930;DHT22;8064;51.142;4.780;2024-01-30T05:00:26;9.90;99.90
15930;DHT22;8064;51.142;4.780;2024-01-30T05:02:54;10.00;99.90
15930;DHT22;8064;51.142;4.780;2024-01-30T05:05:20;10.00;99.90
15930;DHT22;8064;51.142;4.780;2024-01-30T05:07:47;10.00;99.90
15930;DHT22;8064;51.142;4.780;2024-01-30T05:10:13;10.00;99.90
15930;DHT22;8064;51.142;4.780;2024-01-30T05:12:39;10.00;99.90
15930;DHT22;8064;51.142;4.780;2024-01-30T05:15:05;10.00;99.90
15930;DHT22;8064;51.142;4.780;2024-01-30T05:17:31;10.00;99.90
15930;DHT22;8064;51.142;4.780;2024-01-30T05:19:57;10.00;99.90
15930;DHT22;8064;51.142;4.780;2024-01-30T05:22:23;10.00;99.90
15930;DHT22;8064;51.142;4.780;2024-01-30T05:24:49;10.10;99.90
15930;DHT22;8064;51.142;4.780;2024-01-30T05:27:15;10.10;99.90
15930;DHT22;8064;51.142;4.780;2024-01-30T05:29:40;10.10;99.90
15930;DHT22;8064;51.142;4.780;2024-01-30T05:32:06;10.20;99.90
15930;DHT22;8064;51.142;4.780;2024-01-30T05:34:32;10.20;99.90
15930;DHT22;8064;51.142;4.780;2024-01-30T05:36:58;10.20;99.90
15930;DHT22;8064;51.142;4.780;2024-01-30T05:39:24;10.30;99.90
15930;DHT22;8064;51.142;4.780;2024-01-30T05:41:50;10.30;99.90
15930;DHT22;8064;51.142;4.780;2024-01-30T05:44:16;10.30;99.90
15930;DHT22;8064;51.142;4.780;2024-01-30T05:46:42;10.30;99.90
15930;DHT22;8064;51.142;4.780;2024-01-30T05:49:07;10.40;99.90
15930;DHT22;8064;51.142;4.780;2024-01-30T05:51:33;10.40;99.90
15930;DHT22;8064;51.142;4.780;2024-01-30T05:53:59;10.40;99.90
15930;DHT22;8064;51.142;4.780;2024-01-30T05:56:24;10.50;99.90
15930;DHT22;8064;51.142;4.780;2024-01-30T05:58:50;10.50;99.90
15930;DHT22;8064;51.142;4.780;2024-01-30T06:01:16;10.60;99.90
15930;DHT22;8064;51.142;4.780;2024-01-30T06:03:43;10.60;99.90
15930;DHT22;8064;51.142;4.780;2024-01-30T06:06:09;10.60;99.90
15930;DHT22;8064;51.142;4.780;2024-01-30T06:08:34;10.70;99.90
15930;DHT22;8064;51.142;4.780;2024-01-30T06:11:00;10.70;99.90
15930;DHT22;8064;51.142;4.780;2024-01-30T06:13:27;10.80;99.90
15930;DHT22;8064;51.142;4.780;2024-01-30T06:15:52;10.80;99.90
15930;DHT22;8064;51.142;4.780;2024-01-30T06:18:18;10.80;99.90
15930;DHT22;8064;51.142;4.780;2024-01-30T06:20:44;10.90;99.90
15930;DHT22;8064;51.142;4.780;2024-01-30T06:23:10;10.90;99.90
15930;DHT22;8064;51.142;4.780;2024-01-30T06:25:36;10.90;99.90
15930;DHT22;8064;51.142;4.780;2024-01-30T06:28:01;11.00;99.90
15930;DHT22;8064;51.142;4.780;2024-01-30T06:30:27;11.00;99.90
15930;DHT22;8064;51.142;4.780;2024-01-30T06:32:53;11.00;99.90
15930;DHT22;8064;51.142;4.780;2024-01-30T06:35:19;11.00;99.90
15930;DHT22;8064;51.142;4.780;2024-01-30T06:37:47;11.10;99.90
15930;DHT22;8064;51.142;4.780;2024-01-30T06:40:13;11.10;99.90
15930;DHT22;8064;51.142;4.780;2024-01-30T06:42:40;11.10;99.90
15930;DHT22;8064;51.142;4.780;2024-01-30T06:45:07;11.10;99.90
15930;DHT22;8064;51.142;4.780;2024-01-30T06:47:33;11.10;99.90
15930;DHT22;8064;51.142;4.780;2024-01-30T06:49:59;11.10;99.90
15930;DHT22;8064;51.142;4.780;2024-01-30T06:52:25;11.10;99.90
15930;DHT22;8064;51.142;4.780;2024-01-30T06:54:51;11.10;99.90
15930;DHT22;8064;51.142;4.780;2024-01-30T06:57:16;11.10;99.90
15930;DHT22;8064;51.142;4.780;2024-01-30T06:59:42;11.10;99.90
15930;DHT22;8064;51.142;4.780;2024-01-30T07:02:10;11.10;99.90
15930;DHT22;8064;51.142;4.780;2024-01-30T07:04:36;11.10;99.90
15930;DHT22;8064;51.142;4.780;2024-01-30T07:07:04;11.20;99.90
15930;DHT22;8064;51.142;4.780;2024-01-30T07:09:31;11.20;99.90
15930;DHT22;8064;51.142;4.780;2024-01-30T07:11:57;11.20;99.90
15930;DHT22;8064;51.142;4.780;2024-01-30T07:14:24;11.20;99.90
15930;DHT22;8064;51.142;4.780;2024-01-30T07:16:50;11.20;99.90
15930;DHT22;8064;51.142;4.780;2024-01-30T07:19:16;11.20;99.90
15930;DHT22;8064;51.142;4.780;2024-01-30T07:21:42;11.20;99.90
15930;DHT22;8064;51.142;4.780;2024-01-30T07:24:08;11.20;99.90
15930;DHT22;8064;51.142;4.780;2024-01-30T07:26:33;11.20;99.90
15930;DHT22;8064;51.142;4.780;2024-01-30T07:29:01;11.30;99.90
15930;DHT22;8064;51.142;4.780;2024-01-30T07:31:27;11.30;99.90
15930;DHT22;8064;51.142;4.780;2024-01-30T07:33:52;11.30;99.90
15930;DHT22;8064;51.142;4.780;2024-01-30T07:36:20;11.30;99.90
15930;DHT22;8064;51.142;4.780;2024-01-30T07:38:45;11.40;99.90
15930;DHT22;8064;51.142;4.780;2024-01-30T07:41:11;11.40;99.90
15930;DHT22;8064;51.142;4.780;2024-01-30T07:43:38;11.40;99.90
15930;DHT22;8064;51.142;4.780;2024-01-30T07:46:04;11.40;99.90
15930;DHT22;8064;51.142;4.780;2024-01-30T07:48:33;11.40;99.90
15930;DHT22;8064;51.142;4.780;2024-01-30T07:50:59;11.50;99.90
15930;DHT22;8064;51.142;4.780;2024-01-30T07:53:25;11.50;99.90
15930;DHT22;8064;51.142;4.780;2024-01-30T07:55:52;11.50;99.90
15930;DHT22;8064;51.142;4.780;2024-01-30T07:58:18;11.50;99.90
15930;DHT22;8064;51.142;4.780;2024-01-30T08:00:44;11.50;99.90
15930;DHT22;8064;51.142;4.780;2024-01-30T08:03:10;11.60;99.90
15930;DHT22;8064;51.142;4.780;2024-01-30T08:05:36;11.60;99.90
15930;DHT22;8064;51.142;4.780;2024-01-30T08:08:02;11.70;99.90
15930;DHT22;8064;51.142;4.780;2024-01-30T08:10:28;11.70;99.90
15930;DHT22;8064;51.142;4.780;2024-01-30T08:12:53;11.70;99.90
15930;DHT22;8064;51.142;4.780;2024-01-30T08:15:19;11.80;99.90
15930;DHT22;8064;51.142;4.780;2024-01-30T08:17:45;11.80;99.90
15930;DHT22;8064;51.142;4.780;2024-01-30T08:20:11;11.80;99.90
15930;DHT22;8064;51.142;4.780;2024-01-30T08:22:39;11.90;99.90
15930;DHT22;8064;51.142;4.780;2024-01-30T08:25:06;11.90;99.90
15930;DHT22;8064;51.142;4.780;2024-01-30T08:27:32;11.90;99.90
15930;DHT22;8064;51.142;4.780;2024-01-30T08:29:58;11.90;99.90
15930;DHT22;8064;51.142;4.780;2024-01-30T08:32:25;12.00;99.90
15930;DHT22;8064;51.142;4.780;2024-01-30T08:34:51;12.00;99.90
15930;DHT22;8064;51.142;4.780;2024-01-30T08:37:17;12.10;99.90
15930;DHT22;8064;51.142;4.780;2024-01-30T08:39:45;12.10;99.90
15930;DHT22;8064;51.142;4.780;2024-01-30T08:42:12;12.10;99.90
15930;DHT22;8064;51.142;4.780;2024-01-30T08:44:38;12.20;99.90
15930;DHT22;8064;51.142;4.780;2024-01-30T08:47:04;12.20;99.90
15930;DHT22;8064;51.142;4.780;2024-01-30T08:49:30;12.20;99.90
15930;DHT22;8064;51.142;4.780;2024-01-30T08:51:58;12.20;99.90
15930;DHT22;8064;51.142;4.780;2024-01-30T08:54:24;12.30;99.90
15930;DHT22;8064;51.142;4.780;2024-01-30T08:56:50;12.30;99.90
15930;DHT22;8064;51.142;4.780;2024-01-30T08:59:17;12.30;99.90
15930;DHT22;8064;51.142;4.780;2024-01-30T09:01:43;12.30;99.90
15930;DHT22;8064;51.142;4.780;2024-01-30T09:04:09;12.40;99.90
15930;DHT22;8064;51.142;4.780;2024-01-30T09:06:35;12.40;99.90
15930;DHT22;8064;51.142;4.780;2024-01-30T09:09:01;12.40;99.90
15930;DHT22;8064;51.142;4.780;2024-01-30T09:11:26;12.40;99.90
15930;DHT22;8064;51.142;4.780;2024-01-30T09:13:52;12.40;99.90
15930;DHT22;8064;51.142;4.780;2024-01-30T09:16:18;12.40;99.90
15930;DHT22;8064;51.142;4.780;2024-01-30T09:18:44;12.40;99.90
15930;DHT22;8064;51.142;4.780;2024-01-30T09:21:10;12.40;99.90
15930;DHT22;8064;51.142;4.780;2024-01-30T09:23:35;12.50;99.90
15930;DHT22;8064;51.142;4.780;2024-01-30T09:26:01;12.50;99.90
15930;DHT22;8064;51.142;4.780;2024-01-30T09:28:27;12.50;99.90
15930;DHT22;8064;51.142;4.780;2024-01-30T09:30:53;12.50;99.90
15930;DHT22;8064;51.142;4.780;2024-01-30T09:33:18;12.40;99.90
15930;DHT22;8064;51.142;4.780;2024-01-30T09:35:45;12.40;99.90
15930;DHT22;8064;51.142;4.780;2024-01-30T09:38:11;12.50;99.90
15930;DHT22;8064;51.142;4.780;2024-01-30T09:40:36;12.50;99.90
15930;DHT22;8064;51.142;4.780;2024-01-30T09:43:03;12.50;99.90
15930;DHT22;8064;51.142;4.780;2024-01-30T09:45:30;12.50;99.90
15930;DHT22;8064;51.142;4.780;2024-01-30T09:47:59;12.50;99.90
15930;DHT22;8064;51.142;4.780;2024-01-30T09:50:25;12.50;99.90
15930;DHT22;8064;51.142;4.780;2024-01-30T09:52:55;12.60;99.90
15930;DHT22;8064;51.142;4.780;2024-01-30T09:55:42;12.60;99.90
15930;DHT22;8064;51.142;4.780;2024-01-30T09:58:08;12.70;99.90
15930;DHT22;8064;51.142;4.780;2024-01-30T10:00:34;12.70;99.90
15930;DHT22;8064;51.142;4.780;2024-01-30T10:02:59;12.70;99.90
15930;DHT22;8064;51.142;4.780;2024-01-30T10:05:31;12.80;99.90
15930;DHT22;8064;51.142;4.780;2024-01-30T10:07:59;12.80;99.90
15930;DHT22;8064;51.142;4.780;2024-01-30T10:10:25;12.80;99.90
15930;DHT22;8064;51.142;4.780;2024-01-30T10:12:51;12.80;99.90
15930;DHT22;8064;51.142;4.780;2024-01-30T10:15:18;12.80;99.90
15930;DHT22;8064;51.142;4.780;2024-01-30T10:17:45;12.80;99.90
15930;DHT22;8064;51.142;4.780;2024-01-30T10:20:12;12.80;99.90
15930;DHT22;8064;51.142;4.780;2024-01-30T10:22:38;12.80;99.90
15930;DHT22;8064;51.142;4.780;2024-01-30T10:25:05;12.80;99.90
15930;DHT22;8064;51.142;4.780;2024-01-30T10:27:31;12.80;99.90
15930;DHT22;8064;51.142;4.780;2024-01-30T10:29:58;12.80;99.90
15930;DHT22;8064;51.142;4.780;2024-01-30T10:32:23;12.80;99.90
15930;DHT22;8064;51.142;4.780;2024-01-30T10:34:49;12.80;99.90
15930;DHT22;8064;51.142;4.780;2024-01-30T10:37:15;12.80;99.90
15930;DHT22;8064;51.142;4.780;2024-01-30T10:39:45;12.90;99.90
15930;DHT22;8064;51.142;4.780;2024-01-30T10:42:13;12.90;99.90
15930;DHT22;8064;51.142;4.780;2024-01-30T10:47:12;12.90;99.90
15930;DHT22;8064;51.142;4.780;2024-01-30T10:49:40;12.90;99.90
15930;DHT22;8064;51.142;4.780;2024-01-30T10:52:08;12.90;99.90
15930;DHT22;8064;51.142;4.780;2024-01-30T10:54:35;12.90;99.90
15930;DHT22;8064;51.142;4.780;2024-01-30T10:57:02;12.90;99.90
15930;DHT22;8064;51.142;4.780;2024-01-30T10:59:30;12.90;99.90
15930;DHT22;8064;51.142;4.780;2024-01-30T11:01:58;12.90;99.90
15930;DHT22;8064;51.142;4.780;2024-01-30T11:04:24;12.90;99.90
15930;DHT22;8064;51.142;4.780;2024-01-30T11:06:51;12.90;99.90
15930;DHT22;8064;51.142;4.780;2024-01-30T11:09:18;12.90;99.90
15930;DHT22;8064;51.142;4.780;2024-01-30T11:11:56;12.80;99.90
15930;DHT22;8064;51.142;4.780;2024-01-30T11:14:30;12.80;99.90
15930;DHT22;8064;51.142;4.780;2024-01-30T11:16:58;12.80;99.90
15930;DHT22;8064;51.142;4.780;2024-01-30T11:19:25;12.80;99.90
15930;DHT22;8064;51.142;4.780;2024-01-30T11:21:53;12.80;99.90
15930;DHT22;8064;51.142;4.780;2024-01-30T11:24:20;12.80;99.90
15930;DHT22;8064;51.142;4.780;2024-01-30T11:26:49;12.90;99.90
15930;DHT22;8064;51.142;4.780;2024-01-30T11:29:17;12.90;99.90
15930;DHT22;8064;51.142;4.780;2024-01-30T11:31:54;12.90;99.90
15930;DHT22;8064;51.142;4.780;2024-01-30T11:34:21;13.00;99.90
15930;DHT22;8064;51.142;4.780;2024-01-30T11:36:51;13.50;99.90
15930;DHT22;8064;51.142;4.780;2024-01-30T11:39:20;13.80;99.90
15930;DHT22;8064;51.142;4.780;2024-01-30T11:41:49;13.70;99.90
15930;DHT22;8064;51.142;4.780;2024-01-30T11:44:16;13.50;99.90
15930;DHT22;8064;51.142;4.780;2024-01-30T11:46:42;13.40;99.90
15930;DHT22;8064;51.142;4.780;2024-01-30T11:49:08;13.30;99.90
15930;DHT22;8064;51.142;4.780;2024-01-30T11:51:33;13.50;99.90
15930;DHT22;8064;51.142;4.780;2024-01-30T11:54:00;13.80;99.90
15930;DHT22;8064;51.142;4.780;2024-01-30T11:56:27;14.80;99.90
15930;DHT22;8064;51.142;4.780;2024-01-30T11:58:52;15.00;99.90
15930;DHT22;8064;51.142;4.780;2024-01-30T12:01:18;15.70;99.90
15930;DHT22;8064;51.142;4.780;2024-01-30T12:03:50;16.40;99.90
15930;DHT22;8064;51.142;4.780;2024-01-30T12:06:16;17.60;99.90
15930;DHT22;8064;51.142;4.780;2024-01-30T12:08:42;18.10;99.70
15930;DHT22;8064;51.142;4.780;2024-01-30T12:11:08;17.60;99.00
15930;DHT22;8064;51.142;4.780;2024-01-30T12:13:34;17.10;98.80
15930;DHT22;8064;51.142;4.780;2024-01-30T12:16:00;16.50;98.80
15930;DHT22;8064;51.142;4.780;2024-01-30T12:18:26;15.90;98.70
15930;DHT22;8064;51.142;4.780;2024-01-30T12:20:59;15.40;98.30
15930;DHT22;8064;51.142;4.780;2024-01-30T12:23:26;14.80;98.30
15930;DHT22;8064;51.142;4.780;2024-01-30T12:25:52;14.40;98.50
15930;DHT22;8064;51.142;4.780;2024-01-30T12:28:19;14.80;98.60
15930;DHT22;8064;51.142;4.780;2024-01-30T12:30:45;15.40;98.70
15930;DHT22;8064;51.142;4.780;2024-01-30T12:33:16;16.20;98.20
15930;DHT22;8064;51.142;4.780;2024-01-30T12:35:47;17.20;97.10
15930;DHT22;8064;51.142;4.780;2024-01-30T12:38:14;17.00;95.10
15930;DHT22;8064;51.142;4.780;2024-01-30T12:40:40;17.60;94.80
15930;DHT22;8064;51.142;4.780;2024-01-30T12:43:06;17.50;95.00
15930;DHT22;8064;51.142;4.780;2024-01-30T12:45:32;17.10;94.40
15930;DHT22;8064;51.142;4.780;2024-01-30T12:47:57;16.80;94.60
15930;DHT22;8064;51.142;4.780;2024-01-30T12:50:24;16.40;94.30
15930;DHT22;8064;51.142;4.780;2024-01-30T12:52:50;16.00;94.30
15930;DHT22;8064;51.142;4.780;2024-01-30T12:55:16;15.50;94.80
15930;DHT22;8064;51.142;4.780;2024-01-30T12:57:42;15.20;95.30
15930;DHT22;8064;51.142;4.780;2024-01-30T13:00:09;14.90;95.50
15930;DHT22;8064;51.142;4.780;2024-01-30T13:02:35;14.60;95.90
15930;DHT22;8064;51.142;4.780;2024-01-30T13:05:03;14.40;96.20
15930;DHT22;8064;51.142;4.780;2024-01-30T13:07:30;14.20;96.40
15930;DHT22;8064;51.142;4.780;2024-01-30T13:09:56;14.00;96.80
15930;DHT22;8064;51.142;4.780;2024-01-30T13:12:28;13.90;96.90
15930;DHT22;8064;51.142;4.780;2024-01-30T13:14:54;13.70;97.10
15930;DHT22;8064;51.142;4.780;2024-01-30T13:17:20;13.60;97.30
15930;DHT22;8064;51.142;4.780;2024-01-30T13:19:46;13.60;97.50
15930;DHT22;8064;51.142;4.780;2024-01-30T13:22:12;13.60;97.00
15930;DHT22;8064;51.142;4.780;2024-01-30T13:24:37;13.60;97.10
15930;DHT22;8064;51.142;4.780;2024-01-30T13:27:03;13.50;96.80
15930;DHT22;8064;51.142;4.780;2024-01-30T13:29:31;13.40;96.80
15930;DHT22;8064;51.142;4.780;2024-01-30T13:31:57;13.20;96.60
15930;DHT22;8064;51.142;4.780;2024-01-30T13:34:23;13.10;96.70
15930;DHT22;8064;51.142;4.780;2024-01-30T13:36:48;13.00;96.70
15930;DHT22;8064;51.142;4.780;2024-01-30T13:39:15;12.90;96.90
15930;DHT22;8064;51.142;4.780;2024-01-30T13:41:42;12.70;97.20
15930;DHT22;8064;51.142;4.780;2024-01-30T13:44:08;12.70;97.40
15930;DHT22;8064;51.142;4.780;2024-01-30T13:46:35;12.60;97.60
15930;DHT22;8064;51.142;4.780;2024-01-30T13:49:01;12.50;97.80
15930;DHT22;8064;51.142;4.780;2024-01-30T13:51:27;12.40;98.00
15930;DHT22;8064;51.142;4.780;2024-01-30T13:53:53;12.30;98.20
15930;DHT22;8064;51.142;4.780;2024-01-30T13:56:20;12.20;98.40
15930;DHT22;8064;51.142;4.780;2024-01-30T13:58:48;12.10;98.60
15930;DHT22;8064;51.142;4.780;2024-01-30T14:01:15;12.10;98.90
15930;DHT22;8064;51.142;4.780;2024-01-30T14:03:41;12.00;99.10
15930;DHT22;8064;51.142;4.780;2024-01-30T14:06:07;11.90;99.40
15930;DHT22;8064;51.142;4.780;2024-01-30T14:08:33;11.80;99.70
15930;DHT22;8064;51.142;4.780;2024-01-30T14:10:59;11.70;99.90
15930;DHT22;8064;51.142;4.780;2024-01-30T14:13:24;11.60;99.90
15930;DHT22;8064;51.142;4.780;2024-01-30T14:15:51;11.60;99.90
15930;DHT22;8064;51.142;4.780;2024-01-30T14:18:18;11.50;99.90
15930;DHT22;8064;51.142;4.780;2024-01-30T14:20:44;11.50;99.90
15930;DHT22;8064;51.142;4.780;2024-01-30T14:23:09;11.50;99.90
15930;DHT22;8064;51.142;4.780;2024-01-30T14:25:35;11.50;99.90
15930;DHT22;8064;51.142;4.780;2024-01-30T14:28:01;11.50;99.90
15930;DHT22;8064;51.142;4.780;2024-01-30T14:30:27;11.50;99.90
15930;DHT22;8064;51.142;4.780;2024-01-30T14:32:52;11.50;99.90
15930;DHT22;8064;51.142;4.780;2024-01-30T14:35:18;11.50;99.90
15930;DHT22;8064;51.142;4.780;2024-01-30T14:37:45;11.50;99.90
15930;DHT22;8064;51.142;4.780;2024-01-30T14:40:10;11.40;99.90
15930;DHT22;8064;51.142;4.780;2024-01-30T14:42:36;11.40;99.90
15930;DHT22;8064;51.142;4.780;2024-01-30T14:45:03;11.40;99.90
15930;DHT22;8064;51.142;4.780;2024-01-30T14:47:29;11.40;99.90
15930;DHT22;8064;51.142;4.780;2024-01-30T14:49:57;11.30;99.90
15930;DHT22;8064;51.142;4.780;2024-01-30T14:52:23;11.30;99.90
15930;DHT22;8064;51.142;4.780;2024-01-30T14:54:49;11.30;99.90
15930;DHT22;8064;51.142;4.780;2024-01-30T14:57:15;11.30;99.90
15930;DHT22;8064;51.142;4.780;2024-01-30T14:59:41;11.20;99.90
15930;DHT22;8064;51.142;4.780;2024-01-30T15:02:07;11.20;99.90
15930;DHT22;8064;51.142;4.780;2024-01-30T15:04:33;11.20;99.90
15930;DHT22;8064;51.142;4.780;2024-01-30T15:06:59;11.20;99.90
15930;DHT22;8064;51.142;4.780;2024-01-30T15:09:24;11.20;99.90
15930;DHT22;8064;51.142;4.780;2024-01-30T15:11:52;11.20;99.90
15930;DHT22;8064;51.142;4.780;2024-01-30T15:14:18;11.10;99.90
15930;DHT22;8064;51.142;4.780;2024-01-30T15:16:44;11.10;99.90
15930;DHT22;8064;51.142;4.780;2024-01-30T15:19:09;11.10;99.90
15930;DHT22;8064;51.142;4.780;2024-01-30T15:21:35;11.10;99.90
15930;DHT22;8064;51.142;4.780;2024-01-30T15:24:02;11.10;99.90
15930;DHT22;8064;51.142;4.780;2024-01-30T15:26:28;11.10;99.90
15930;DHT22;8064;51.142;4.780;2024-01-30T15:28:54;11.10;99.90
15930;DHT22;8064;51.142;4.780;2024-01-30T15:31:20;11.10;99.90
15930;DHT22;8064;51.142;4.780;2024-01-30T15:33:47;11.10;99.90
15930;DHT22;8064;51.142;4.780;2024-01-30T15:36:13;11.10;99.90
15930;DHT22;8064;51.142;4.780;2024-01-30T15:38:39;11.10;99.90
15930;DHT22;8064;51.142;4.780;2024-01-30T15:41:05;11.10;99.90
15930;DHT22;8064;51.142;4.780;2024-01-30T15:43:31;11.10;99.90
15930;DHT22;8064;51.142;4.780;2024-01-30T15:45:58;11.20;99.90